sensor_id;sensor_type;location;lat;lon;timestamp;P1;durP1;ratioP1;P2;durP2;ratioP2
74912;SDS011;63878;55.624;37.304;2023-02-20T00:06:57;24.67;;;11.18;;
74912;SDS011;63878;55.624;37.304;2023-02-20T00:16:58;28.85;;;12.25;;
74912;SDS011;63878;55.624;37.304;2023-02-20T00:26:58;27.73;;;11.00;;
74912;SDS011;63878;55.624;37.304;2023-02-20T00:36:59;25.70;;;11.20;;
74912;SDS011;63878;55.624;37.304;2023-02-20T00:47:00;25.33;;;10.87;;
74912;SDS011;63878;55.624;37.304;2023-02-20T00:57:01;24.42;;;11.73;;
74912;SDS011;63878;55.624;37.304;2023-02-20T01:07:01;29.42;;;12.38;;
74912;SDS011;63878;55.624;37.304;2023-02-20T01:17:02;30.17;;;12.40;;
74912;SDS011;63878;55.624;37.304;2023-02-20T01:27:03;29.53;;;12.00;;
74912;SDS011;63878;55.624;37.304;2023-02-20T01:37:04;27.77;;;11.40;;
74912;SDS011;63878;55.624;37.304;2023-02-20T01:47:06;25.95;;;12.40;;
74912;SDS011;63878;55.624;37.304;2023-02-20T01:57:08;27.38;;;12.98;;
74912;SDS011;63878;55.624;37.304;2023-02-20T02:07:15;29.65;;;14.05;;
74912;SDS011;63878;55.624;37.304;2023-02-20T02:17:20;31.02;;;13.98;;
74912;SDS011;63878;55.624;37.304;2023-02-20T02:58:27;28.45;;;11.90;;
74912;SDS011;63878;55.624;37.304;2023-02-20T03:08:29;32.55;;;13.60;;
74912;SDS011;63878;55.624;37.304;2023-02-20T03:18:40;30.08;;;14.23;;
74912;SDS011;63878;55.624;37.304;2023-02-20T03:28:41;39.93;;;15.67;;
74912;SDS011;63878;55.624;37.304;2023-02-20T03:38:49;29.85;;;12.07;;
74912;SDS011;63878;55.624;37.304;2023-02-20T03:49:01;35.70;;;15.35;;
74912;SDS011;63878;55.624;37.304;2023-02-20T03:59:15;44.20;;;17.20;;
74912;SDS011;63878;55.624;37.304;2023-02-20T04:09:21;33.95;;;12.65;;
74912;SDS011;63878;55.624;37.304;2023-02-20T04:19:26;30.30;;;11.38;;
74912;SDS011;63878;55.624;37.304;2023-02-20T04:29:27;24.50;;;10.32;;
74912;SDS011;63878;55.624;37.304;2023-02-20T04:39:28;25.83;;;11.48;;
74912;SDS011;63878;55.624;37.304;2023-02-20T04:49:29;22.83;;;9.52;;
74912;SDS011;63878;55.624;37.304;2023-02-20T04:59:30;27.67;;;11.63;;
74912;SDS011;63878;55.624;37.304;2023-02-20T05:09:31;28.20;;;13.38;;
74912;SDS011;63878;55.624;37.304;2023-02-20T05:19:32;27.27;;;12.93;;
74912;SDS011;63878;55.624;37.304;2023-02-20T05:29:33;33.92;;;15.15;;
74912;SDS011;63878;55.624;37.304;2023-02-20T05:39:34;28.25;;;13.00;;
74912;SDS011;63878;55.624;37.304;2023-02-20T05:49:34;31.87;;;13.53;;
74912;SDS011;63878;55.624;37.304;2023-02-20T05:59:36;23.38;;;10.68;;
74912;SDS011;63878;55.624;37.304;2023-02-20T06:09:40;25.73;;;12.23;;
74912;SDS011;63878;55.624;37.304;2023-02-20T06:19:41;34.28;;;14.60;;
74912;SDS011;63878;55.624;37.304;2023-02-20T06:29:41;30.55;;;15.07;;
74912;SDS011;63878;55.624;37.304;2023-02-20T06:39:42;25.93;;;13.13;;
74912;SDS011;63878;55.624;37.304;2023-02-20T06:49:43;33.85;;;16.23;;
74912;SDS011;63878;55.624;37.304;2023-02-20T06:59:44;30.33;;;12.87;;
74912;SDS011;63878;55.624;37.304;2023-02-20T07:09:45;30.75;;;14.48;;
74912;SDS011;63878;55.624;37.304;2023-02-20T07:19:45;28.15;;;13.35;;
74912;SDS011;63878;55.624;37.304;2023-02-20T07:29:46;32.58;;;16.75;;
74912;SDS011;63878;55.624;37.304;2023-02-20T07:39:48;35.08;;;15.95;;
74912;SDS011;63878;55.624;37.304;2023-02-20T07:49:49;27.67;;;12.80;;
74912;SDS011;63878;55.624;37.304;2023-02-20T07:59:49;31.55;;;14.63;;
74912;SDS011;63878;55.624;37.304;2023-02-20T08:09:50;33.23;;;14.43;;
74912;SDS011;63878;55.624;37.304;2023-02-20T08:19:50;28.30;;;13.20;;
74912;SDS011;63878;55.624;37.304;2023-02-20T08:29:50;32.50;;;16.02;;
74912;SDS011;63878;55.624;37.304;2023-02-20T08:39:51;35.45;;;16.23;;
74912;SDS011;63878;55.624;37.304;2023-02-20T08:49:51;32.85;;;14.63;;
74912;SDS011;63878;55.624;37.304;2023-02-20T08:59:52;33.92;;;15.70;;
74912;SDS011;63878;55.624;37.304;2023-02-20T09:09:52;30.33;;;13.57;;
74912;SDS011;63878;55.624;37.304;2023-02-20T09:19:53;27.77;;;13.30;;
74912;SDS011;63878;55.624;37.304;2023-02-20T09:29:54;28.90;;;13.27;;
74912;SDS011;63878;55.624;37.304;2023-02-20T09:39:54;30.02;;;13.68;;
74912;SDS011;63878;55.624;37.304;2023-02-20T09:49:58;27.07;;;14.10;;
74912;SDS011;63878;55.624;37.304;2023-02-20T10:00:15;43.95;;;16.27;;
74912;SDS011;63878;55.624;37.304;2023-02-20T10:10:29;30.05;;;14.45;;
74912;SDS011;63878;55.624;37.304;2023-02-20T10:20:37;28.90;;;14.60;;
74912;SDS011;63878;55.624;37.304;2023-02-20T10:40:59;27.67;;;13.35;;
74912;SDS011;63878;55.624;37.304;2023-02-20T10:51:20;26.63;;;14.07;;
74912;SDS011;63878;55.624;37.304;2023-02-20T11:01:41;23.48;;;12.57;;
74912;SDS011;63878;55.624;37.304;2023-02-20T11:11:45;30.95;;;13.63;;
74912;SDS011;63878;55.624;37.304;2023-02-20T11:21:47;24.17;;;10.77;;
74912;SDS011;63878;55.624;37.304;2023-02-20T11:31:49;26.77;;;12.18;;
74912;SDS011;63878;55.624;37.304;2023-02-20T11:42:02;28.17;;;13.37;;
74912;SDS011;63878;55.624;37.304;2023-02-20T11:52:21;31.38;;;13.80;;
74912;SDS011;63878;55.624;37.304;2023-02-20T12:02:23;31.25;;;13.77;;
74912;SDS011;63878;55.624;37.304;2023-02-20T12:12:27;34.47;;;14.70;;
74912;SDS011;63878;55.624;37.304;2023-02-20T12:42:56;25.77;;;12.38;;
74912;SDS011;63878;55.624;37.304;2023-02-20T12:53:34;21.67;;;12.55;;
74912;SDS011;63878;55.624;37.304;2023-02-20T13:03:48;22.92;;;11.23;;
74912;SDS011;63878;55.624;37.304;2023-02-20T13:44:36;17.55;;;7.88;;
74912;SDS011;63878;55.624;37.304;2023-02-20T13:54:41;21.65;;;9.52;;
74912;SDS011;63878;55.624;37.304;2023-02-20T14:04:51;22.27;;;9.97;;
74912;SDS011;63878;55.624;37.304;2023-02-20T14:14:56;21.40;;;9.85;;
74912;SDS011;63878;55.624;37.304;2023-02-20T14:35:31;26.42;;;9.65;;
74912;SDS011;63878;55.624;37.304;2023-02-20T14:45:42;22.58;;;10.02;;
74912;SDS011;63878;55.624;37.304;2023-02-20T14:55:44;21.55;;;10.77;;
74912;SDS011;63878;55.624;37.304;2023-02-20T15:05:48;18.23;;;8.40;;
74912;SDS011;63878;55.624;37.304;2023-02-20T15:15:50;17.38;;;9.00;;
74912;SDS011;63878;55.624;37.304;2023-02-20T15:25:53;23.33;;;9.57;;
74912;SDS011;63878;55.624;37.304;2023-02-20T15:35:54;23.55;;;10.10;;
74912;SDS011;63878;55.624;37.304;2023-02-20T15:45:55;18.10;;;8.52;;
74912;SDS011;63878;55.624;37.304;2023-02-20T15:55:56;26.48;;;10.65;;
74912;SDS011;63878;55.624;37.304;2023-02-20T16:06:00;21.50;;;9.35;;
74912;SDS011;63878;55.624;37.304;2023-02-20T16:16:04;25.15;;;10.20;;
74912;SDS011;63878;55.624;37.304;2023-02-20T16:26:12;21.60;;;9.93;;
74912;SDS011;63878;55.624;37.304;2023-02-20T16:36:12;19.27;;;9.30;;
74912;SDS011;63878;55.624;37.304;2023-02-20T16:46:13;24.15;;;9.25;;
74912;SDS011;63878;55.624;37.304;2023-02-20T16:56:14;27.23;;;12.50;;
74912;SDS011;63878;55.624;37.304;2023-02-20T17:06:15;25.88;;;12.07;;
74912;SDS011;63878;55.624;37.304;2023-02-20T17:16:16;31.50;;;12.90;;
74912;SDS011;63878;55.624;37.304;2023-02-20T17:26:17;32.05;;;11.73;;
74912;SDS011;63878;55.624;37.304;2023-02-20T17:36:18;23.98;;;11.15;;
74912;SDS011;63878;55.624;37.304;2023-02-20T17:46:19;31.52;;;12.13;;
74912;SDS011;63878;55.624;37.304;2023-02-20T17:56:20;29.02;;;12.02;;
74912;SDS011;63878;55.624;37.304;2023-02-20T18:06:22;28.08;;;11.27;;
74912;SDS011;63878;55.624;37.304;2023-02-20T18:16:26;26.52;;;11.48;;
74912;SDS011;63878;55.624;37.304;2023-02-20T18:26:28;28.80;;;12.25;;
74912;SDS011;63878;55.624;37.304;2023-02-20T18:36:29;28.65;;;13.27;;
74912;SDS011;63878;55.624;37.304;2023-02-20T18:46:31;27.70;;;11.65;;
74912;SDS011;63878;55.624;37.304;2023-02-20T18:56:33;26.88;;;12.90;;
74912;SDS011;63878;55.624;37.304;2023-02-20T19:06:35;31.05;;;12.52;;
74912;SDS011;63878;55.624;37.304;2023-02-20T19:16:36;32.58;;;14.93;;
74912;SDS011;63878;55.624;37.304;2023-02-20T19:26:37;32.73;;;12.33;;
74912;SDS011;63878;55.624;37.304;2023-02-20T19:36:38;38.22;;;14.70;;
74912;SDS011;63878;55.624;37.304;2023-02-20T19:46:39;35.10;;;13.13;;
74912;SDS011;63878;55.624;37.304;2023-02-20T19:56:44;39.72;;;16.10;;
74912;SDS011;63878;55.624;37.304;2023-02-20T20:06:46;38.92;;;16.23;;
74912;SDS011;63878;55.624;37.304;2023-02-20T20:16:47;42.67;;;18.45;;
74912;SDS011;63878;55.624;37.304;2023-02-20T20:26:48;41.83;;;17.25;;
74912;SDS011;63878;55.624;37.304;2023-02-20T20:36:49;43.55;;;14.35;;
74912;SDS011;63878;55.624;37.304;2023-02-20T20:46:49;44.20;;;16.17;;
74912;SDS011;63878;55.624;37.304;2023-02-20T20:56:50;45.40;;;16.13;;
74912;SDS011;63878;55.624;37.304;2023-02-20T21:06:51;34.97;;;15.40;;
74912;SDS011;63878;55.624;37.304;2023-02-20T21:16:52;44.97;;;18.30;;
74912;SDS011;63878;55.624;37.304;2023-02-20T21:26:53;48.25;;;18.10;;
74912;SDS011;63878;55.624;37.304;2023-02-20T21:36:54;47.57;;;15.83;;
74912;SDS011;63878;55.624;37.304;2023-02-20T21:46:56;46.75;;;19.40;;
74912;SDS011;63878;55.624;37.304;2023-02-20T21:56:59;49.13;;;18.95;;
74912;SDS011;63878;55.624;37.304;2023-02-20T22:07:00;47.67;;;19.83;;
74912;SDS011;63878;55.624;37.304;2023-02-20T22:17:00;46.42;;;16.77;;
74912;SDS011;63878;55.624;37.304;2023-02-20T22:37:02;49.22;;;18.45;;
74912;SDS011;63878;55.624;37.304;2023-02-20T22:47:02;50.47;;;21.00;;
74912;SDS011;63878;55.624;37.304;2023-02-20T23:07:03;57.53;;;22.38;;
74912;SDS011;63878;55.624;37.304;2023-02-20T23:17:04;68.93;;;26.70;;
74912;SDS011;63878;55.624;37.304;2023-02-20T23:27:05;54.65;;;19.95;;
74912;SDS011;63878;55.624;37.304;2023-02-20T23:37:06;40.05;;;16.38;;
74912;SDS011;63878;55.624;37.304;2023-02-20T23:47:07;49.22;;;20.38;;
